Time;durP1;ratioP1;P1;durP2;ratioP2;P2;SDS_P1;SDS_P2;PMS_P1;PMS_P2;Temp;Humidity;BMP_temperature;BMP_pressure;BME280_temperature;BME280_humidity;BME280_pressure;Samples;Min_cycle;Max_cycle;Signal;HPM_P1;HPM_P2
2022/09/27 00:00:01;;;;;;;5.30;4.90;;;;;;;13.24;67.52;98812.72;4948178;29;20046;-79
2022/09/27 00:02:26;;;;;;;6.38;5.28;;;;;;;13.22;67.28;98812.75;4944532;29;20407;-79
2022/09/27 00:04:51;;;;;;;9.55;5.35;;;;;;;13.22;67.20;98810.09;4945534;28;20054;-79
2022/09/27 00:07:17;;;;;;;5.90;5.30;;;;;;;13.22;67.07;98798.66;4945638;29;20054;-79
2022/09/27 00:09:42;;;;;;;5.85;5.35;;;;;;;13.20;67.30;98800.50;4945017;28;20039;-79
2022/09/27 00:12:09;;;;;;;5.47;4.25;;;;;;;13.21;67.59;98792.50;4954050;28;20410;-79
2022/09/27 00:14:34;;;;;;;6.55;5.35;;;;;;;13.16;67.27;98786.56;4938656;28;20070;-80
2022/09/27 00:16:59;;;;;;;5.55;5.05;;;;;;;13.17;67.21;98780.31;4944245;28;20130;-79
2022/09/27 00:19:25;;;;;;;6.25;5.25;;;;;;;13.14;67.12;98778.66;4946846;29;20083;-78
2022/09/27 00:21:51;;;;;;;5.57;5.10;;;;;;;13.19;67.64;98772.31;4949127;28;20482;-79
2022/09/27 00:24:19;;;;;;;7.00;5.20;;;;;;;13.19;67.31;98773.16;4945937;28;20038;-79
2022/09/27 00:26:46;;;;;;;6.10;5.57;;;;;;;13.21;67.10;98766.03;4943418;28;20036;-79
2022/09/27 00:29:12;;;;;;;7.38;5.07;;;;;;;13.25;66.83;98764.09;4945613;29;20469;-78
2022/09/27 00:31:38;;;;;;;5.50;5.00;;;;;;;13.28;66.74;98758.66;4942931;29;20410;-79
2022/09/27 00:34:05;;;;;;;5.72;5.22;;;;;;;13.30;67.00;98754.16;4947125;28;20036;-78
2022/09/27 00:36:31;;;;;;;5.65;5.10;;;;;;;13.27;66.43;98754.31;4944690;29;20295;-79
2022/09/27 00:39:01;;;;;;;5.75;4.95;;;;;;;13.27;66.44;98751.66;4945531;29;20090;-79
2022/09/27 00:41:34;;;;;;;6.20;5.40;;;;;;;13.32;66.47;98752.31;4944155;28;20109;-79
2022/09/27 00:44:23;;;;;;;7.35;5.40;;;;;;;13.30;66.42;98751.53;4946958;29;20479;-79
2022/09/27 00:46:57;;;;;;;5.80;5.30;;;;;;;13.30;66.51;98751.53;4944868;29;20031;-79
2022/09/27 00:49:28;;;;;;;5.40;4.88;;;;;;;13.27;67.23;98741.91;4943905;28;20032;-78
2022/09/27 00:52:01;;;;;;;5.75;4.68;;;;;;;13.30;67.57;98741.78;4950791;28;20050;-79
2022/09/27 00:54:27;;;;;;;5.95;4.85;;;;;;;13.27;68.10;98735.78;4947772;28;20101;-78
2022/09/27 00:56:54;;;;;;;7.50;4.95;;;;;;;13.31;68.29;98726.75;4945205;28;20415;-79
2022/09/27 00:59:26;;;;;;;7.97;5.03;;;;;;;13.25;68.28;98721.69;4947028;29;20387;-80
2022/09/27 01:01:51;;;;;;;5.43;4.93;;;;;;;13.27;68.44;98711.94;4944788;28;20039;-78
2022/09/27 01:04:23;;;;;;;6.43;5.00;;;;;;;13.34;68.30;98713.38;4947056;29;20505;-79
2022/09/27 01:06:50;;;;;;;5.32;4.82;;;;;;;13.33;68.74;98709.84;4949450;29;20129;-79
2022/09/27 01:09:15;;;;;;;5.30;4.80;;;;;;;13.32;68.74;98704.63;4946409;29;20118;-79
2022/09/27 01:11:56;;;;;;;5.78;4.07;;;;;;;13.32;69.12;98694.03;4954467;28;20529;-79
2022/09/27 01:14:40;;;;;;;4.63;4.20;;;;;;;13.30;69.25;98695.88;4947527;29;20035;-79
2022/09/27 01:17:38;;;;;;;4.78;4.38;;;;;;;13.23;69.48;98691.75;4947370;29;20062;-78
2022/09/27 01:20:15;;;;;;;5.22;4.72;;;;;;;13.19;69.30;98685.75;4949173;28;20126;-79
2022/09/27 01:23:14;;;;;;;5.00;4.50;;;;;;;13.24;69.81;98682.91;4949027;28;20031;-79
2022/09/27 01:25:58;;;;;;;5.00;4.45;;;;;;;13.23;69.81;98675.88;4943956;29;20655;-79
2022/09/27 01:28:50;;;;;;;7.03;4.93;;;;;;;13.24;69.56;98669.66;4944723;28;20040;-79
2022/09/27 01:31:26;;;;;;;4.78;4.28;;;;;;;13.26;69.73;98673.97;4944500;28;20043;-79
2022/09/27 01:34:10;;;;;;;5.57;4.47;;;;;;;13.22;69.63;98668.84;4946218;28;20070;-79
2022/09/27 01:37:07;;;;;;;6.90;4.78;;;;;;;13.19;69.51;98667.22;4946459;29;20130;-79
2022/09/27 01:39:50;;;;;;;4.47;4.07;;;;;;;13.15;69.49;98661.22;4942212;28;20056;-78
2022/09/27 01:42:52;;;;;;;4.85;4.45;;;;;;;13.13;69.63;98657.75;4945538;29;20146;-78
2022/09/27 01:45:25;;;;;;;5.00;4.38;;;;;;;13.16;69.85;98649.66;4935049;29;20050;-80
2022/09/27 01:48:18;;;;;;;6.35;4.75;;;;;;;13.22;68.98;98648.53;4941953;29;20055;-79
2022/09/27 01:50:54;;;;;;;5.13;4.28;;;;;;;13.19;69.27;98642.53;4942398;29;20117;-79
2022/09/27 01:53:22;;;;;;;;;;;;;;;13.18;69.11;98641.66;4952143;29;20122;-79
2022/09/27 01:56:37;;;;;;;5.88;3.92;;;;;;;13.16;69.50;98639.06;4957807;28;19957;-79
2022/09/27 01:59:14;;;;;;;4.15;3.75;;;;;;;13.17;68.87;98642.56;4942160;29;20111;-79
2022/09/27 02:01:50;;;;;;;4.68;4.22;;;;;;;13.12;69.22;98631.34;4941631;28;20086;-79
2022/09/27 02:04:31;;;;;;;4.57;4.13;;;;;;;13.12;68.93;98626.91;4941811;28;20036;-78
2022/09/27 02:07:11;;;;;;;4.50;4.07;;;;;;;13.14;69.15;98626.84;4941473;29;20487;-79
2022/09/27 02:09:44;;;;;;;5.20;4.25;;;;;;;13.16;68.98;98628.47;4943073;28;20035;-79
2022/09/27 02:12:22;;;;;;;4.82;4.43;;;;;;;13.18;69.06;98619.59;4941680;29;20032;-78
2022/09/27 02:15:08;;;;;;;4.95;4.18;;;;;;;13.22;68.45;98619.38;4943035;28;20031;-78
2022/09/27 02:17:55;;;;;;;6.70;3.88;;;;;;;13.24;68.60;98621.97;4942634;28;20082;-79
2022/09/27 02:20:34;;;;;;;4.22;3.83;;;;;;;13.25;68.62;98621.03;4942343;29;20048;-79
2022/09/27 02:23:13;;;;;;;6.93;4.10;;;;;;;13.25;68.49;98615.72;4944555;28;20031;-79
2022/09/27 02:25:45;;;;;;;4.85;4.35;;;;;;;13.27;68.52;98612.09;4942406;28;20035;-78
2022/09/27 02:28:30;;;;;;;4.63;4.22;;;;;;;13.28;69.33;98612.97;4944677;29;20103;-78
2022/09/27 02:30:56;;;;;;;4.13;3.72;;;;;;;13.28;69.21;98615.59;4944293;29;20091;-77
2022/09/27 02:33:47;;;;;;;4.35;3.95;;;;;;;13.24;69.38;98598.13;4943105;28;20038;-78
2022/09/27 02:36:12;;;;;;;5.03;4.53;;;;;;;13.26;69.15;98604.22;4944530;28;20528;-78
2022/09/27 02:38:39;;;;;;;5.15;4.60;;;;;;;13.29;69.40;98596.16;4947710;28;20043;-78
2022/09/27 02:41:16;;;;;;;5.20;4.45;;;;;;;13.26;69.91;98598.91;4946137;29;20036;-78
2022/09/27 02:43:44;;;;;;;4.53;3.90;;;;;;;13.23;70.70;98599.94;4945045;28;20028;-77
2022/09/27 02:46:13;;;;;;;4.50;4.10;;;;;;;13.23;70.39;98591.97;4947529;28;20027;-78
2022/09/27 02:49:00;;;;;;;5.05;4.50;;;;;;;13.24;71.20;98592.84;4946600;29;20036;-78
2022/09/27 02:51:37;;;;;;;4.70;4.30;;;;;;;13.19;71.94;98590.41;4950521;28;20035;-78
2022/09/27 02:54:31;;;;;;;4.63;3.97;;;;;;;13.19;71.33;98585.09;4944759;28;20127;-78
2022/09/27 02:57:28;;;;;;;5.75;4.30;;;;;;;13.14;72.16;98592.41;4946741;29;20053;-78
2022/09/27 03:00:17;;;;;;;4.88;4.40;;;;;;;13.16;72.40;98580.81;4945544;29;20570;-78
2022/09/27 03:03:06;;;;;;;5.07;4.20;;;;;;;13.23;72.41;98580.50;4949599;29;20040;-78
2022/09/27 03:06:09;;;;;;;4.90;4.50;;;;;;;13.21;73.13;98577.09;4943200;28;20040;-78
2022/09/27 03:08:37;;;;;;;5.07;4.20;;;;;;;13.21;72.86;98574.44;4947853;28;20395;-78
2022/09/27 03:11:03;;;;;;;6.43;4.78;;;;;;;13.21;72.74;98571.78;4960482;28;20035;-78
2022/09/27 03:13:29;;;;;;;4.28;3.85;;;;;;;13.14;73.03;98572.06;4946702;28;20383;-78
2022/09/27 03:15:56;;;;;;;4.90;4.40;;;;;;;13.14;73.66;98572.06;4945443;29;20096;-78
2022/09/27 03:18:47;;;;;;;4.70;3.78;;;;;;;13.11;73.68;98560.78;4945524;29;20031;-78
2022/09/27 03:21:31;;;;;;;4.60;4.20;;;;;;;13.14;73.87;98561.47;4952602;28;20054;-77
2022/09/27 03:23:56;;;;;;;4.80;4.40;;;;;;;13.12;73.84;98558.03;4944894;28;20035;-78
2022/09/27 03:26:22;;;;;;;4.35;3.95;;;;;;;13.05;74.08;98551.34;4945882;29;20034;-77
2022/09/27 03:28:47;;;;;;;4.22;3.83;;;;;;;13.09;73.59;98552.88;4944131;28;20047;-78
2022/09/27 03:31:13;;;;;;;4.70;3.90;;;;;;;13.13;73.60;98551.81;4953780;28;20043;-78
2022/09/27 03:33:48;;;;;;;4.47;4.07;;;;;;;13.16;73.64;98556.13;4944911;28;20036;-78
2022/09/27 03:36:14;;;;;;;5.95;4.80;;;;;;;13.13;74.00;98549.19;4943807;29;20039;-78
2022/09/27 03:38:39;;;;;;;4.22;3.80;;;;;;;13.08;73.89;98550.34;4947260;29;20126;-77
2022/09/27 03:41:08;;;;;;;5.93;4.40;;;;;;;13.07;73.72;98549.47;4944207;29;20035;-78
2022/09/27 03:43:34;;;;;;;4.95;4.38;;;;;;;13.03;74.57;98547.91;4945137;28;20490;-77
2022/09/27 03:46:02;;;;;;;5.88;4.40;;;;;;;12.96;75.27;98548.25;4943936;29;20498;-77
2022/09/27 03:48:29;;;;;;;6.13;4.90;;;;;;;12.80;76.85;98542.84;4944377;28;20054;-78
2022/09/27 03:50:55;;;;;;;4.60;4.20;;;;;;;12.78;76.83;98539.38;4946075;28;20039;-78
2022/09/27 03:53:20;;;;;;;5.93;4.47;;;;;;;12.76;77.24;98531.53;4937982;28;20047;-77
2022/09/27 03:55:46;;;;;;;4.78;4.28;;;;;;;12.77;77.80;98530.59;4941589;29;20118;-77
2022/09/27 03:58:12;;;;;;;4.85;4.40;;;;;;;12.78;78.26;98526.16;4951775;29;20039;-77
2022/09/27 04:00:39;;;;;;;5.03;4.10;;;;;;;12.76;79.03;98528.00;4944902;28;20426;-78
2022/09/27 04:03:05;;;;;;;5.50;4.28;;;;;;;12.77;78.84;98524.44;4945813;29;20118;-77
2022/09/27 04:05:49;;;;;;;5.15;4.65;;;;;;;12.68;80.69;98521.31;4946284;29;20495;-77
2022/09/27 04:08:21;;;;;;;6.25;4.38;;;;;;;12.66;80.63;98520.50;4940668;28;20023;-77
2022/09/27 04:10:47;;;;;;;6.90;4.95;;;;;;;12.63;81.25;98523.31;4944961;29;20039;-78
2022/09/27 04:13:12;;;;;;;5.57;4.97;;;;;;;12.52;82.57;98520.28;4946532;28;20035;-77
2022/09/27 04:15:45;;;;;;;6.40;5.60;;;;;;;12.50;83.06;98524.81;4945093;29;20046;-77
2022/09/27 04:18:37;;;;;;;4.85;4.40;;;;;;;12.49;82.84;98520.44;4947015;29;20043;-78
2022/09/27 04:21:05;;;;;;;7.70;5.55;;;;;;;12.46;83.73;98520.56;4946934;28;20047;-78
2022/09/27 04:23:32;;;;;;;7.85;5.38;;;;;;;12.40;84.69;98520.88;4949003;29;20108;-78
2022/09/27 04:25:59;;;;;;;29.60;15.10;;;;;;;12.41;84.51;98522.56;4949126;28;20431;-78
2022/09/27 04:28:45;;;;;;;6.30;5.70;;;;;;;12.39;84.91;98519.13;4946290;28;20059;-78
2022/09/27 04:31:13;;;;;;;8.82;5.55;;;;;;;12.42;84.21;98517.22;4941685;28;20031;-77
2022/09/27 04:33:49;;;;;;;6.53;5.35;;;;;;;12.44;84.75;98519.78;4944250;29;20042;-77
2022/09/27 04:36:26;;;;;;;7.72;6.00;;;;;;;12.47;85.13;98524.91;4947645;28;20401;-77
2022/09/27 04:39:06;;;;;;;11.60;5.93;;;;;;;12.42;85.40;98519.00;4946432;29;20043;-77
2022/09/27 04:41:35;;;;;;;6.40;5.72;;;;;;;12.40;85.80;98521.72;4944283;28;20030;-77
2022/09/27 04:44:01;;;;;;;7.75;6.10;;;;;;;12.39;86.43;98514.72;4948316;29;20031;-78
2022/09/27 04:46:30;;;;;;;10.70;7.18;;;;;;;12.38;86.69;98526.22;4949285;28;20051;-78
2022/09/27 04:48:58;;;;;;;7.90;6.05;;;;;;;12.35;87.69;98525.50;4943126;29;20038;-78
2022/09/27 04:51:24;;;;;;;7.38;5.93;;;;;;;12.30;87.81;98532.78;4947789;28;20038;-77
2022/09/27 04:53:49;;;;;;;10.23;6.90;;;;;;;12.29;88.44;98537.22;4943345;28;20054;-78
2022/09/27 04:56:15;;;;;;;8.98;7.07;;;;;;;12.32;88.23;98534.44;4945272;29;20043;-78
2022/09/27 04:58:40;;;;;;;9.05;6.03;;;;;;;12.23;89.71;98529.53;4937645;28;20036;-78
2022/09/27 05:01:06;;;;;;;17.95;13.40;;;;;;;12.17;90.50;98528.03;4945474;28;20031;-78
2022/09/27 05:03:50;;;;;;;12.52;8.85;;;;;;;12.19;90.92;98527.97;4945321;29;20062;-78
2022/09/27 05:06:17;;;;;;;9.27;8.30;;;;;;;12.11;92.63;98533.59;4942263;28;20035;-78
2022/09/27 05:08:44;;;;;;;8.35;6.85;;;;;;;12.03;92.35;98530.44;4946878;28;20425;-78
2022/09/27 05:11:21;;;;;;;9.75;6.68;;;;;;;12.05;91.61;98529.47;4939492;29;20058;-78
2022/09/27 05:14:06;;;;;;;7.93;6.40;;;;;;;12.04;92.85;98533.00;4946372;28;20047;-78
2022/09/27 05:16:41;;;;;;;8.32;7.03;;;;;;;12.04;92.44;98529.50;4943146;29;20546;-78
2022/09/27 05:19:34;;;;;;;7.13;6.43;;;;;;;12.07;92.26;98538.16;4943703;29;20111;-78
2022/09/27 05:22:16;;;;;;;11.18;7.28;;;;;;;12.16;91.94;98536.06;4948225;28;20439;-78
2022/09/27 05:24:42;;;;;;;9.02;7.28;;;;;;;12.17;92.37;98529.81;4948245;28;20042;-78
2022/09/27 05:27:12;;;;;;;12.00;6.93;;;;;;;12.23;91.49;98530.41;4949524;29;20449;-78
2022/09/27 05:29:37;;;;;;;9.27;7.03;;;;;;;12.30;91.05;98517.78;4946023;28;20050;-78
2022/09/27 05:32:07;;;;;;;9.50;7.47;;;;;;;12.35;91.45;98520.22;4947117;29;20035;-78
2022/09/27 05:34:33;;;;;;;10.63;8.57;;;;;;;12.35;91.15;98517.56;4941512;29;20035;-78
2022/09/27 05:36:58;;;;;;;8.00;7.18;;;;;;;12.32;91.75;98523.00;4947534;28;20027;-78
2022/09/27 05:39:24;;;;;;;12.82;8.75;;;;;;;12.25;93.10;98528.56;4947185;28;20491;-79
2022/09/27 05:41:50;;;;;;;8.60;7.40;;;;;;;12.23;92.73;98525.09;4944014;28;20268;-78
2022/09/27 05:44:16;;;;;;;9.15;7.47;;;;;;;12.26;92.41;98529.41;4943126;29;20038;-78
2022/09/27 05:46:51;;;;;;;11.20;7.72;;;;;;;12.28;92.22;98520.47;4946215;29;20044;-78
2022/09/27 05:49:16;;;;;;;10.68;8.40;;;;;;;12.31;92.28;98526.56;4953159;28;20035;-78
2022/09/27 05:51:42;;;;;;;10.70;8.13;;;;;;;12.37;92.33;98521.00;4949201;28;20046;-78
2022/09/27 05:54:07;;;;;;;8.32;7.47;;;;;;;12.43;91.75;98515.44;4942678;28;20071;-78
2022/09/27 05:56:32;;;;;;;9.32;8.13;;;;;;;12.43;92.49;98512.78;4945370;29;20130;-78
2022/09/27 05:59:12;;;;;;;11.50;8.68;;;;;;;12.30;94.01;98515.13;4944468;29;20035;-79
2022/09/27 06:01:57;;;;;;;11.68;8.88;;;;;;;12.32;93.67;98517.72;4947080;28;20050;-79
2022/09/27 06:04:42;;;;;;;9.55;7.57;;;;;;;12.37;92.58;98516.56;4943699;28;20517;-80
2022/09/27 06:07:27;;;;;;;10.98;8.23;;;;;;;12.33;94.19;98516.78;4944240;28;20475;-79
2022/09/27 06:09:53;;;;;;;10.55;8.68;;;;;;;12.35;93.32;98514.94;4954046;28;20040;-80
2022/09/27 06:12:19;;;;;;;9.95;8.45;;;;;;;12.41;93.52;98517.28;4954729;28;20083;-79
2022/09/27 06:14:45;;;;;;;13.13;8.48;;;;;;;12.44;93.30;98511.84;4946120;28;20040;-80
2022/09/27 06:17:15;;;;;;;11.07;9.77;;;;;;;12.48;93.55;98518.72;4948473;29;20035;-80
2022/09/27 06:19:43;;;;;;;9.90;8.15;;;;;;;12.54;93.06;98512.28;4945822;28;20062;-79
2022/09/27 06:22:08;;;;;;;12.52;9.27;;;;;;;12.58;92.85;98517.38;4949388;28;20043;-79
2022/09/27 06:24:40;;;;;;;11.25;8.55;;;;;;;12.55;93.26;98514.88;4945372;28;20533;-79
2022/09/27 06:27:13;;;;;;;9.75;8.07;;;;;;;12.58;93.56;98516.53;4954292;28;20046;-79
2022/09/27 06:29:47;;;;;;;8.13;7.03;;;;;;;12.68;92.84;98518.66;4948695;28;20031;-80
2022/09/27 06:32:24;;;;;;;10.60;9.02;;;;;;;12.69;93.05;98512.44;4953869;29;20039;-79
2022/09/27 06:35:11;;;;;;;10.07;8.10;;;;;;;12.78;92.77;98516.41;4944974;29;20102;-80
2022/09/27 06:37:36;;;;;;;10.65;8.25;;;;;;;12.82;92.39;98515.34;4948103;28;20479;-79
2022/09/27 06:40:02;;;;;;;12.52;8.35;;;;;;;12.83;92.48;98516.22;4950015;28;20517;-80
2022/09/27 06:42:52;;;;;;;11.00;8.15;;;;;;;12.91;91.61;98517.53;4946351;29;20070;-79
2022/09/27 06:45:34;;;;;;;10.70;7.97;;;;;;;12.80;93.51;98519.00;4945419;28;20063;-80
2022/09/27 06:48:18;;;;;;;9.65;7.63;;;;;;;12.89;92.85;98514.13;4949787;29;20054;-79
2022/09/27 06:50:52;;;;;;;9.27;8.00;;;;;;;12.97;92.01;98516.44;4946194;29;20553;-79
2022/09/27 06:53:18;;;;;;;10.23;7.65;;;;;;;12.99;93.00;98511.88;4949470;28;20035;-79
2022/09/27 06:55:44;;;;;;;10.30;7.07;;;;;;;13.14;91.74;98513.81;4944808;28;20438;-79
2022/09/27 07:01:13;;;;;;;12.20;9.02;;;;;;;13.34;89.49;98523.47;4955321;28;20085;-80
2022/09/27 07:03:57;;;;;;;8.60;7.72;;;;;;;13.46;89.10;98514.03;4946919;29;20051;-80
2022/09/27 07:06:43;;;;;;;8.77;7.55;;;;;;;13.53;88.97;98509.28;4940839;28;20664;-80
2022/09/27 07:09:23;;;;;;;8.40;6.43;;;;;;;13.61;88.32;98515.06;4944039;28;20031;-79
2022/09/27 07:11:48;;;;;;;8.10;7.13;;;;;;;13.71;88.47;98511.00;4942537;29;20086;-80
2022/09/27 07:14:15;;;;;;;8.55;7.43;;;;;;;13.77;87.82;98502.72;4949756;28;20031;-80
2022/09/27 07:16:40;;;;;;;7.95;5.60;;;;;;;13.77;87.91;98507.19;4949887;28;20039;-80
2022/09/27 07:19:06;;;;;;;8.40;6.90;;;;;;;13.87;87.17;98503.13;4947079;28;20054;-79
2022/09/27 07:21:33;;;;;;;7.28;5.78;;;;;;;13.93;87.25;98505.44;4953257;28;20090;-79
2022/09/27 07:23:58;;;;;;;6.30;5.68;;;;;;;13.90;87.36;98513.56;4948357;28;20032;-80
2022/09/27 07:26:23;;;;;;;7.57;5.65;;;;;;;13.88;86.97;98518.09;4953790;29;20047;-80
2022/09/27 07:28:49;;;;;;;6.05;5.45;;;;;;;13.86;86.94;98517.31;4943696;29;20047;-80
2022/09/27 07:31:16;;;;;;;8.88;6.40;;;;;;;13.79;87.25;98522.06;4948105;29;20541;-79
2022/09/27 07:33:41;;;;;;;13.65;10.75;;;;;;;13.78;87.47;98524.78;4945966;28;20074;-80
2022/09/27 07:36:12;;;;;;;8.02;7.03;;;;;;;13.82;87.40;98524.56;4945350;29;20054;-80
2022/09/27 07:38:41;;;;;;;8.27;6.25;;;;;;;13.79;87.57;98523.88;4949017;29;20032;-80
2022/09/27 07:41:12;;;;;;;7.78;5.55;;;;;;;13.78;87.25;98524.78;4948313;29;20035;-80
2022/09/27 07:43:38;;;;;;;7.95;6.88;;;;;;;13.80;87.05;98523.78;4927848;29;20085;-78
2022/09/27 07:46:04;;;;;;;6.85;6.15;;;;;;;13.93;87.15;98517.84;4944339;29;20044;-80
2022/09/27 07:48:51;;;;;;;9.13;5.28;;;;;;;14.01;86.63;98520.97;4950063;29;20046;-80
2022/09/27 07:51:33;;;;;;;6.20;5.05;;;;;;;14.01;87.03;98516.50;4950391;28;20130;-79
2022/09/27 07:54:05;;;;;;;6.18;5.30;;;;;;;14.06;86.54;98518.06;4943424;28;20035;-79
2022/09/27 07:56:46;;;;;;;7.20;6.10;;;;;;;14.12;85.84;98520.38;4946243;28;20130;-80
2022/09/27 07:59:13;;;;;;;6.00;5.40;;;;;;;14.16;86.07;98514.00;4944098;28;20071;-79
2022/09/27 08:01:39;;;;;;;6.00;5.35;;;;;;;14.15;85.49;98528.22;4946562;28;20059;-79
2022/09/27 08:04:04;;;;;;;6.25;5.60;;;;;;;14.12;85.59;98520.38;4949136;29;20380;-79
2022/09/27 08:06:30;;;;;;;7.72;7.03;;;;;;;14.08;85.63;98516.19;4913053;28;993285;-79
2022/09/27 08:08:57;;;;;;;9.15;7.45;;;;;;;14.08;85.63;98516.19;4945346;29;20043;-80
2022/09/27 08:11:23;;;;;;;7.85;7.05;;;;;;;14.15;85.85;98517.59;4944407;28;20031;-79
2022/09/27 08:13:51;;;;;;;7.30;5.88;;;;;;;14.25;84.65;98518.81;4946112;29;20410;-79
2022/09/27 08:16:17;;;;;;;7.60;6.82;;;;;;;14.29;84.60;98520.38;4943895;28;20399;-80
2022/09/27 08:19:11;;;;;;;7.80;7.10;;;;;;;14.44;84.08;98518.69;4951181;28;20043;-80
2022/09/27 08:21:44;;;;;;;6.70;6.00;;;;;;;14.42;83.68;98520.56;4946545;28;20449;-80
2022/09/27 08:24:25;;;;;;;7.18;6.28;;;;;;;14.39;83.20;98520.75;4950349;29;20050;-80
2022/09/27 08:27:01;;;;;;;6.15;5.55;;;;;;;14.38;83.31;98525.19;4949536;28;20099;-80
2022/09/27 08:29:40;;;;;;;8.50;5.82;;;;;;;14.33;83.61;98526.34;4944783;28;20027;-80
2022/09/27 08:32:10;;;;;;;8.45;5.60;;;;;;;14.21;82.64;98525.22;4951632;23;20124;-77
2022/09/27 08:34:36;;;;;;;6.57;5.30;;;;;;;14.01;83.09;98532.41;4920795;29;20119;-78
2022/09/27 08:37:02;;;;;;;6.63;5.40;;;;;;;14.00;83.69;98536.03;4911886;29;20028;-77
2022/09/27 08:39:28;;;;;;;6.95;5.70;;;;;;;14.03;83.17;98527.91;4906965;29;20068;-78
2022/09/27 08:42:13;;;;;;;6.57;5.22;;;;;;;13.99;84.04;98531.66;4905797;29;20731;-78
2022/09/27 08:44:45;;;;;;;5.88;4.88;;;;;;;13.99;83.71;98529.00;4920984;29;20620;-78
2022/09/27 08:47:47;;;;;;;7.05;5.68;;;;;;;14.05;84.49;98524.31;4906476;29;20036;-78
2022/09/27 08:50:27;;;;;;;7.43;5.63;;;;;;;14.41;84.05;98519.72;4895223;29;20474;-78
2022/09/27 08:53:04;;;;;;;5.85;5.28;;;;;;;14.56;83.10;98525.16;4907763;29;20040;-78
2022/09/27 08:55:41;;;;;;;7.53;6.03;;;;;;;14.65;83.11;98522.00;4925850;29;20039;-78
2022/09/27 08:58:20;;;;;;;5.10;4.70;;;;;;;14.73;82.49;98526.91;4934510;28;20091;-78
2022/09/27 09:00:50;;;;;;;5.35;4.85;;;;;;;14.77;82.77;98533.75;4912686;29;20062;-78
2022/09/27 09:03:19;;;;;;;6.70;4.40;;;;;;;14.77;82.33;98531.09;4907013;29;20059;-78
2022/09/27 09:06:01;;;;;;;6.80;4.95;;;;;;;14.71;82.71;98534.09;4917503;29;20040;-78
2022/09/27 09:08:38;;;;;;;4.72;4.15;;;;;;;14.53;79.91;98533.28;4914011;29;20459;-78
2022/09/27 09:14:40;;;;;;;4.68;4.35;;;;;;;14.54;78.28;98537.66;4921792;29;20039;-77
2022/09/27 09:17:35;;;;;;;5.55;5.03;;;;;;;14.81;78.99;98541.47;4913325;29;20033;-77
2022/09/27 09:20:33;;;;;;;4.22;3.88;;;;;;;14.85;77.52;98537.69;4923985;29;20188;-78
2022/09/27 09:23:17;;;;;;;4.65;3.90;;;;;;;14.62;78.43;98540.78;4913260;29;20072;-78
2022/09/27 09:26:12;;;;;;;4.75;4.25;;;;;;;14.31;77.60;98545.03;4915076;29;20582;-78
2022/09/27 09:28:55;;;;;;;5.18;4.25;;;;;;;14.02;80.05;98550.06;4904196;29;20139;-78
2022/09/27 09:31:51;;;;;;;5.13;4.43;;;;;;;13.88;82.45;98549.91;4910011;29;20047;-78
2022/09/27 09:34:22;;;;;;;4.75;4.35;;;;;;;13.97;82.89;98549.44;4913648;29;20044;-77
2022/09/27 09:36:55;;;;;;;4.90;4.32;;;;;;;14.20;81.61;98542.06;4908034;29;20087;-78
2022/09/27 09:39:31;;;;;;;5.07;4.57;;;;;;;14.57;81.16;98540.16;4920234;29;20541;-77
2022/09/27 09:42:15;;;;;;;5.82;4.90;;;;;;;14.85;77.03;98532.38;4918876;29;20040;-79
2022/09/27 09:44:53;;;;;;;4.50;4.10;;;;;;;15.11;77.60;98532.72;4906610;29;20032;-78
2022/09/27 09:47:41;;;;;;;5.10;4.65;;;;;;;15.17;70.49;98521.75;4925482;29;20596;-78
2022/09/27 09:50:26;;;;;;;4.55;4.15;;;;;;;15.38;71.94;98526.75;4926173;29;20115;-78
2022/09/27 09:52:58;;;;;;;5.45;4.95;;;;;;;15.44;70.25;98521.13;4927921;29;20486;-78
2022/09/27 09:55:35;;;;;;;4.88;4.47;;;;;;;15.31;70.50;98519.16;4917658;29;20036;-78
2022/09/27 09:58:21;;;;;;;5.18;4.78;;;;;;;15.43;71.30;98508.75;4902959;29;20045;-78
2022/09/27 10:00:53;;;;;;;4.95;4.55;;;;;;;15.62;72.63;98506.75;4915742;29;20036;-78
2022/09/27 10:03:19;;;;;;;5.65;5.15;;;;;;;15.64;70.28;98504.84;4916139;29;20047;-78
2022/09/27 10:05:46;;;;;;;6.00;4.38;;;;;;;15.76;69.13;98506.81;4920001;29;20032;-78
2022/09/27 10:08:18;;;;;;;4.63;4.22;;;;;;;15.57;68.50;98500.84;4922774;29;20039;-79
2022/09/27 10:10:46;;;;;;;6.28;5.22;;;;;;;15.47;66.88;98510.31;4915582;29;20098;-78
2022/09/27 10:13:34;;;;;;;5.47;5.07;;;;;;;15.49;68.24;98503.09;4911982;29;20036;-78
2022/09/27 10:16:07;;;;;;;6.28;5.50;;;;;;;15.69;65.06;98497.50;4907119;29;20044;-79
2022/09/27 10:18:37;;;;;;;5.63;5.25;;;;;;;15.74;64.34;98498.06;4922050;29;20047;-79
2022/09/27 10:21:10;;;;;;;5.47;5.07;;;;;;;15.58;64.61;98502.53;4922449;29;20044;-78
2022/09/27 10:24:07;;;;;;;4.90;4.50;;;;;;;15.55;64.68;98506.22;4928032;29;20498;-78
2022/09/27 10:26:59;;;;;;;5.13;4.72;;;;;;;15.27;64.33;98512.31;4912617;29;20107;-78
2022/09/27 10:29:30;;;;;;;4.28;3.97;;;;;;;15.03;66.10;98517.22;4915108;29;20035;-79
2022/09/27 10:31:58;;;;;;;4.53;4.13;;;;;;;14.76;67.30;98530.25;4915617;29;20080;-78
2022/09/27 10:34:38;;;;;;;3.92;3.63;;;;;;;14.35;73.91;98549.22;4912856;29;20041;-79
2022/09/27 10:37:11;;;;;;;7.60;3.92;;;;;;;13.54;83.32;98569.31;4913295;29;20029;-77
2022/09/27 10:39:47;;;;;;;3.72;3.05;;;;;;;12.65;94.37;98561.16;4912586;29;20039;-79
2022/09/27 10:42:35;;;;;;;3.85;3.40;;;;;;;12.19;99.68;98570.28;4907447;29;20060;-78
2022/09/27 10:45:26;;;;;;;7.50;5.82;;;;;;;12.11;100.00;98575.91;4918094;29;20127;-79
2022/09/27 10:48:01;;;;;;;4.20;3.90;;;;;;;11.97;100.00;98563.31;4912003;29;20040;-79
2022/09/27 10:50:38;;;;;;;4.20;3.80;;;;;;;12.11;100.00;98573.28;4915500;29;20044;-81
2022/09/27 10:53:19;;;;;;;5.95;5.53;;;;;;;12.56;100.00;98556.28;4913715;29;20631;-80
2022/09/27 10:55:53;;;;;;;5.85;5.45;;;;;;;13.07;98.77;98557.44;4922702;29;20040;-80
2022/09/27 10:58:28;;;;;;;6.47;5.25;;;;;;;13.41;98.93;98554.94;4907663;29;20399;-79
2022/09/27 11:01:01;;;;;;;5.53;5.13;;;;;;;13.46;97.99;98558.22;4913232;29;20040;-80
2022/09/27 11:03:29;;;;;;;5.43;3.92;;;;;;;13.49;98.04;98556.31;4931491;29;20525;-78
2022/09/27 11:05:58;;;;;;;4.25;3.85;;;;;;;13.20;95.19;98565.63;4906585;29;20406;-79
2022/09/27 11:08:31;;;;;;;3.78;3.47;;;;;;;13.01;97.76;98564.78;4926166;29;20037;-78
2022/09/27 11:11:12;;;;;;;3.55;3.25;;;;;;;13.04;98.43;98569.94;4899164;29;20172;-78
2022/09/27 11:13:38;;;;;;;4.85;3.53;;;;;;;12.99;96.56;98572.78;4920928;29;20455;-78
2022/09/27 11:16:33;;;;;;;3.97;3.58;;;;;;;12.78;91.14;98576.44;4923149;29;20559;-78
2022/09/27 11:19:17;;;;;;;4.03;3.63;;;;;;;12.47;91.76;98581.38;4912030;29;20067;-78
2022/09/27 11:21:48;;;;;;;4.15;3.60;;;;;;;12.40;94.17;98587.00;4914293;29;20052;-77
2022/09/27 11:24:34;;;;;;;5.47;5.07;;;;;;;12.09;89.54;98608.63;4917307;29;20471;-78
2022/09/27 11:27:20;;;;;;;4.30;3.70;;;;;;;11.98;87.66;98602.03;4908578;29;20499;-78
2022/09/27 11:30:07;;;;;;;3.95;3.65;;;;;;;11.72;86.99;98618.09;4928011;29;20100;-78
2022/09/27 11:33:40;;;;;;;4.40;4.05;;;;;;;11.76;88.82;98601.16;4908381;29;20124;-78
2022/09/27 11:36:18;;;;;;;4.97;4.50;;;;;;;12.00;85.37;98607.25;4929855;29;20035;-78
2022/09/27 11:39:04;;;;;;;5.32;4.90;;;;;;;12.10;84.86;98603.25;4895984;29;20564;-77
2022/09/27 11:42:04;;;;;;;4.72;4.43;;;;;;;12.40;85.27;98610.81;4913620;29;20028;-78
2022/09/27 11:44:47;;;;;;;4.68;4.38;;;;;;;12.55;81.05;98602.19;4923901;29;20550;-78
2022/09/27 11:47:27;;;;;;;6.50;4.78;;;;;;;12.46;80.93;98607.88;4906363;29;20041;-78
2022/09/27 11:50:22;;;;;;;4.97;4.15;;;;;;;12.66;80.65;98602.56;4905685;29;20033;-79
2022/09/27 11:53:06;;;;;;;4.47;4.18;;;;;;;12.76;81.60;98603.00;4913587;29;20034;-78
2022/09/27 11:55:51;;;;;;;4.47;4.07;;;;;;;13.00;80.67;98610.75;4911764;29;20036;-79
2022/09/27 11:58:22;;;;;;;4.43;4.13;;;;;;;12.99;78.55;98604.56;4911598;29;20418;-78
2022/09/27 12:01:31;;;;;;;5.05;4.68;;;;;;;13.07;80.11;98613.03;4902231;29;20032;-78
2022/09/27 12:04:32;;;;;;;4.03;3.72;;;;;;;13.10;77.66;98604.94;4915565;29;20126;-78
2022/09/27 12:07:15;;;;;;;4.40;4.10;;;;;;;13.30;77.15;98625.19;4926379;29;20048;-78
2022/09/27 12:09:46;;;;;;;4.57;4.28;;;;;;;13.03;77.64;98624.69;4917919;29;20059;-78
2022/09/27 12:12:21;;;;;;;4.75;4.45;;;;;;;13.21;76.88;98619.47;4912063;29;20046;-78
2022/09/27 12:15:02;;;;;;;4.85;4.35;;;;;;;13.20;79.09;98620.38;4913141;29;20051;-78